createdAt,value
2017-09-04T00:01:32.594Z,9.86
2017-09-04T00:03:58.342Z,9.72
2017-09-04T00:06:24.116Z,9.73
2017-09-04T00:08:49.937Z,9.66
2017-09-04T00:11:15.699Z,9.71
2017-09-04T00:13:41.540Z,9.75
2017-09-04T00:16:07.312Z,9.71
2017-09-04T00:18:33.042Z,9.71
2017-09-04T00:20:58.894Z,9.58
2017-09-04T00:23:24.700Z,9.54
2017-09-04T00:25:50.452Z,9.39
2017-09-04T00:28:16.196Z,9.40
2017-09-04T00:30:41.978Z,9.47
2017-09-04T00:33:07.779Z,9.47
2017-09-04T00:35:33.535Z,9.35
2017-09-04T00:37:59.374Z,9.42
2017-09-04T00:40:25.168Z,9.49
2017-09-04T00:42:51.029Z,9.53
2017-09-04T00:45:16.842Z,9.48
2017-09-04T00:47:42.658Z,9.47
2017-09-04T00:50:08.410Z,9.55
2017-09-04T00:52:34.252Z,9.48
2017-09-04T00:55:01.177Z,9.47
2017-09-04T00:57:26.976Z,9.32
2017-09-04T00:59:52.763Z,9.27
2017-09-04T01:02:18.619Z,9.09
2017-09-04T01:04:44.408Z,9.16
2017-09-04T01:07:10.190Z,9.32
2017-09-04T01:09:35.943Z,9.17
2017-09-04T01:12:01.707Z,9.21
2017-09-04T01:14:27.527Z,9.24
2017-09-04T01:16:53.294Z,9.25
2017-09-04T01:19:19.100Z,9.16
2017-09-04T01:21:44.862Z,9.15
2017-09-04T01:24:10.631Z,9.10
2017-09-04T01:26:36.411Z,9.03
2017-09-04T01:29:02.156Z,9.00
2017-09-04T01:31:27.939Z,8.75
2017-09-04T01:33:53.730Z,8.67
2017-09-04T01:36:19.487Z,8.72
2017-09-04T01:38:45.299Z,8.76
2017-09-04T01:41:11.038Z,8.61
2017-09-04T01:43:36.820Z,8.76
2017-09-04T01:46:02.587Z,8.81
2017-09-04T01:48:28.323Z,8.75
2017-09-04T01:50:54.119Z,8.76
2017-09-04T01:53:19.870Z,8.80
2017-09-04T01:55:45.619Z,8.71
2017-09-04T01:58:11.483Z,8.69
2017-09-04T02:00:37.243Z,8.74
2017-09-04T02:03:03.011Z,8.66
2017-09-04T02:05:28.775Z,8.69
2017-09-04T02:07:54.579Z,8.71
2017-09-04T02:10:20.352Z,8.67
2017-09-04T02:12:46.135Z,8.71
2017-09-04T02:15:11.883Z,8.57
2017-09-04T02:17:37.648Z,8.64
2017-09-04T02:20:03.443Z,8.61
2017-09-04T02:22:29.192Z,8.55
2017-09-04T02:24:54.971Z,8.48
2017-09-04T02:27:20.725Z,8.57
2017-09-04T02:29:46.492Z,8.69
2017-09-04T02:32:12.267Z,8.54
2017-09-04T02:34:38.007Z,8.53
2017-09-04T02:37:03.766Z,8.53
2017-09-04T02:39:29.522Z,8.48
2017-09-04T02:41:55.296Z,8.19
2017-09-04T02:44:21.067Z,8.29
2017-09-04T02:46:46.807Z,8.43
2017-09-04T02:49:12.574Z,8.32
2017-09-04T02:51:38.367Z,8.20
2017-09-04T02:54:04.152Z,8.23
2017-09-04T02:56:29.892Z,8.31
2017-09-04T02:58:55.647Z,8.35
2017-09-04T03:01:21.811Z,8.30
2017-09-04T03:03:47.643Z,8.27
2017-09-04T03:06:13.391Z,8.33
2017-09-04T03:08:39.159Z,8.31
2017-09-04T03:11:04.972Z,8.32
2017-09-04T03:13:30.716Z,8.30
2017-09-04T03:15:56.489Z,8.42
2017-09-04T03:18:22.255Z,8.36
2017-09-04T03:20:48.063Z,8.41
2017-09-04T03:23:13.943Z,8.27
2017-09-04T03:25:39.791Z,8.26
2017-09-04T03:28:05.572Z,8.38
2017-09-04T03:30:31.372Z,8.37
2017-09-04T03:32:57.196Z,8.46
2017-09-04T03:35:22.992Z,8.55
2017-09-04T03:37:48.763Z,8.37
2017-09-04T03:40:14.638Z,8.39
2017-09-04T03:42:40.416Z,8.32
2017-09-04T03:45:06.247Z,8.34
2017-09-04T03:47:32.025Z,8.42
2017-09-04T03:49:57.849Z,8.52
2017-09-04T03:52:23.635Z,8.39
2017-09-04T03:54:49.403Z,8.36
2017-09-04T03:57:15.332Z,8.18
2017-09-04T03:59:41.163Z,8.05
2017-09-04T04:02:06.928Z,8.06
2017-09-04T04:04:32.782Z,8.11
2017-09-04T04:06:58.566Z,8.11
2017-09-04T04:09:24.348Z,8.08
2017-09-04T04:11:50.123Z,8.08
2017-09-04T04:14:15.911Z,8.17
2017-09-04T04:16:41.664Z,8.23
2017-09-04T04:19:07.483Z,8.16
2017-09-04T04:21:33.271Z,8.15
2017-09-04T04:23:59.016Z,8.14
2017-09-04T04:26:24.779Z,8.12
2017-09-04T04:28:50.544Z,8.13
2017-09-04T04:31:16.355Z,8.14
2017-09-04T04:33:42.172Z,8.12
2017-09-04T04:36:07.927Z,7.96
2017-09-04T04:38:33.685Z,7.94
2017-09-04T04:40:59.426Z,8.04
2017-09-04T04:43:25.195Z,8.09
2017-09-04T04:45:50.935Z,8.13
2017-09-04T04:48:16.719Z,8.02
2017-09-04T04:50:42.465Z,8.02
2017-09-04T04:53:08.242Z,8.06
2017-09-04T04:55:34.035Z,8.11
2017-09-04T04:57:59.840Z,8.14
2017-09-04T05:00:25.587Z,8.15
2017-09-04T05:02:51.403Z,8.20
2017-09-04T05:05:17.200Z,8.23
2017-09-04T05:07:42.951Z,8.37
2017-09-04T05:10:08.726Z,8.39
2017-09-04T05:12:34.510Z,8.41
2017-09-04T05:15:00.283Z,8.51
2017-09-04T05:17:27.077Z,8.48
2017-09-04T05:19:52.847Z,8.64
2017-09-04T05:22:18.602Z,8.66
2017-09-04T05:24:44.490Z,8.79
2017-09-04T05:27:10.251Z,8.81
2017-09-04T05:29:35.992Z,8.89
2017-09-04T05:32:01.851Z,8.92
2017-09-04T05:34:27.612Z,8.97
2017-09-04T05:36:53.423Z,9.01
2017-09-04T05:39:19.187Z,9.03
2017-09-04T05:41:44.992Z,9.20
2017-09-04T05:44:10.745Z,9.24
2017-09-04T05:46:36.490Z,9.41
2017-09-04T05:49:02.293Z,9.57
2017-09-04T05:51:28.638Z,9.85
2017-09-04T05:53:54.429Z,10.08
2017-09-04T05:56:20.177Z,10.17
2017-09-04T05:58:45.964Z,10.22
2017-09-04T06:01:11.719Z,10.39
2017-09-04T06:03:37.496Z,10.27
2017-09-04T06:06:03.260Z,10.40
2017-09-04T06:08:29.060Z,10.69
2017-09-04T06:10:54.798Z,10.65
2017-09-04T06:13:20.560Z,10.80
2017-09-04T06:15:46.351Z,10.76
2017-09-04T06:18:12.160Z,10.96
2017-09-04T06:20:38.006Z,11.26
2017-09-04T06:23:03.847Z,11.55
2017-09-04T06:25:29.708Z,11.66
2017-09-04T06:27:55.452Z,11.94
2017-09-04T06:30:21.203Z,12.01
2017-09-04T06:32:46.986Z,12.52
2017-09-04T06:35:12.787Z,12.54
2017-09-04T06:37:38.527Z,13.10
2017-09-04T06:40:04.295Z,13.46
2017-09-04T06:42:30.083Z,13.73
2017-09-04T06:44:55.844Z,14.15
2017-09-04T06:47:21.611Z,14.41
2017-09-04T06:49:47.408Z,14.55
2017-09-04T06:52:13.163Z,14.80
2017-09-04T06:54:39.020Z,15.24
2017-09-04T06:57:04.755Z,15.98
2017-09-04T06:59:30.491Z,16.21
2017-09-04T07:01:56.373Z,15.63
2017-09-04T07:04:22.127Z,16.19
2017-09-04T07:06:47.878Z,16.03
2017-09-04T07:09:13.747Z,16.59
2017-09-04T07:11:39.503Z,16.47
2017-09-04T07:14:05.271Z,17.06
2017-09-04T07:16:31.043Z,17.43
2017-09-04T07:18:56.799Z,18.56
2017-09-04T07:21:22.593Z,18.85
2017-09-04T07:23:48.435Z,18.61
2017-09-04T07:26:14.191Z,18.77
2017-09-04T07:28:39.970Z,19.32
2017-09-04T07:31:05.772Z,18.83
2017-09-04T07:33:31.516Z,19.39
2017-09-04T07:35:57.254Z,19.48
2017-09-04T07:38:23.090Z,19.78
2017-09-04T07:40:48.839Z,19.66
2017-09-04T07:43:14.580Z,19.47
2017-09-04T07:45:40.348Z,19.36
2017-09-04T07:48:06.181Z,20.57
2017-09-04T07:50:31.980Z,20.61
2017-09-04T07:52:57.807Z,20.94
2017-09-04T07:55:23.550Z,19.91
2017-09-04T07:57:49.303Z,21.05
2017-09-04T08:00:15.083Z,20.40
2017-09-04T08:02:40.827Z,21.16
2017-09-04T08:05:06.618Z,21.08
2017-09-04T08:07:32.380Z,20.23
2017-09-04T08:09:58.167Z,19.55
2017-09-04T08:12:23.944Z,20.38
2017-09-04T08:14:49.716Z,20.33
2017-09-04T08:17:15.546Z,19.27
2017-09-04T08:19:41.299Z,20.32
2017-09-04T08:22:07.059Z,19.97
2017-09-04T08:24:32.860Z,19.77
2017-09-04T08:26:58.614Z,19.57
2017-09-04T08:29:24.372Z,19.74
2017-09-04T08:31:50.263Z,19.61
2017-09-04T08:34:16.035Z,19.42
2017-09-04T08:36:41.791Z,20.22
2017-09-04T08:39:07.571Z,19.31
2017-09-04T08:41:33.311Z,19.31
2017-09-04T08:43:59.090Z,19.58
2017-09-04T08:46:24.871Z,19.79
2017-09-04T08:48:50.623Z,19.29
2017-09-04T08:51:16.389Z,19.75
2017-09-04T08:53:42.219Z,19.43
2017-09-04T08:56:07.975Z,19.96
2017-09-04T08:58:33.798Z,20.14
2017-09-04T09:01:00.232Z,19.82
2017-09-04T09:03:25.998Z,20.12
2017-09-04T09:05:51.781Z,20.56
2017-09-04T09:08:17.587Z,20.45
2017-09-04T09:10:43.520Z,20.27
2017-09-04T09:13:09.279Z,20.88
2017-09-04T09:15:35.035Z,20.73
2017-09-04T09:18:00.940Z,20.98
2017-09-04T09:20:26.685Z,20.86
2017-09-04T09:22:52.447Z,21.35
2017-09-04T09:25:18.236Z,20.83
2017-09-04T09:27:44.046Z,20.80
2017-09-04T09:30:09.798Z,20.84
2017-09-04T09:32:35.567Z,21.05
2017-09-04T09:35:01.363Z,21.41
2017-09-04T09:37:27.181Z,21.85
2017-09-04T09:39:52.951Z,22.77
2017-09-04T09:42:18.727Z,22.45
2017-09-04T09:44:44.516Z,22.17
2017-09-04T09:47:10.323Z,21.25
2017-09-04T09:49:36.077Z,20.92
2017-09-04T09:52:01.880Z,21.80
2017-09-04T09:54:27.671Z,22.20
2017-09-04T09:56:53.437Z,23.30
2017-09-04T09:59:19.540Z,22.68
2017-09-04T10:01:45.319Z,22.71
2017-09-04T10:04:11.083Z,22.63
2017-09-04T10:06:37.007Z,22.36
2017-09-04T10:09:02.784Z,22.30
2017-09-04T10:11:28.555Z,21.72
2017-09-04T10:13:54.342Z,21.34
2017-09-04T10:16:20.105Z,22.66
2017-09-04T10:18:45.925Z,21.94
2017-09-04T10:21:11.732Z,22.63
2017-09-04T10:23:37.508Z,22.27
2017-09-04T10:26:03.339Z,22.41
2017-09-04T10:28:29.096Z,22.25
2017-09-04T10:30:55.051Z,22.61
2017-09-04T10:33:20.819Z,22.71
2017-09-04T10:35:46.588Z,22.89
2017-09-04T10:38:12.380Z,22.48
2017-09-04T10:40:38.146Z,22.45
2017-09-04T10:43:03.942Z,22.43
2017-09-04T10:45:29.749Z,22.49
2017-09-04T10:47:55.520Z,22.51
2017-09-04T10:50:21.297Z,22.93
2017-09-04T10:52:47.215Z,22.49
2017-09-04T10:55:13.000Z,23.14
2017-09-04T10:57:38.800Z,23.42
2017-09-04T11:00:04.583Z,23.89
2017-09-04T11:02:30.379Z,23.87
2017-09-04T11:04:56.195Z,23.58
2017-09-04T11:07:21.978Z,23.20
2017-09-04T11:09:47.755Z,22.42
2017-09-04T11:12:13.557Z,22.60
2017-09-04T11:14:39.328Z,22.41
2017-09-04T11:17:05.138Z,22.07
2017-09-04T11:19:30.899Z,22.20
2017-09-04T11:21:56.703Z,22.81
2017-09-04T11:24:22.531Z,22.98
2017-09-04T11:26:48.316Z,23.06
2017-09-04T11:29:14.095Z,23.07
2017-09-04T11:31:39.904Z,23.18
2017-09-04T11:34:05.687Z,23.03
2017-09-04T11:36:31.503Z,22.85
2017-09-04T11:38:57.267Z,22.21
2017-09-04T11:41:23.031Z,22.11
2017-09-04T11:43:48.825Z,21.99
2017-09-04T11:46:14.587Z,22.37
2017-09-04T11:48:40.387Z,22.06
2017-09-04T11:51:06.175Z,21.50
2017-09-04T11:53:31.962Z,21.93
2017-09-04T11:55:57.734Z,22.12
2017-09-04T11:58:23.531Z,22.42
2017-09-04T12:00:49.466Z,22.61
2017-09-04T12:03:15.294Z,22.27
2017-09-04T12:05:41.048Z,22.58
2017-09-04T12:08:06.886Z,22.66
2017-09-04T12:10:32.699Z,22.81
2017-09-04T12:12:58.459Z,22.71
2017-09-04T12:15:24.231Z,22.75
2017-09-04T12:17:50.091Z,22.82
2017-09-04T12:20:15.992Z,23.30
2017-09-04T12:22:41.823Z,23.44
2017-09-04T12:25:07.661Z,23.56
2017-09-04T12:27:33.447Z,22.88
2017-09-04T12:29:59.265Z,23.03
2017-09-04T12:32:25.240Z,22.47
2017-09-04T12:34:51.115Z,22.74
2017-09-04T12:37:16.880Z,22.43
2017-09-04T12:39:42.683Z,22.27
2017-09-04T12:42:08.440Z,22.46
2017-09-04T12:44:34.203Z,22.70
2017-09-04T12:46:59.999Z,22.78
2017-09-04T12:49:25.781Z,22.89
2017-09-04T12:51:51.579Z,22.58
2017-09-04T12:54:17.396Z,22.58
2017-09-04T12:56:43.184Z,22.77
2017-09-04T12:59:08.948Z,23.07
2017-09-04T13:01:34.717Z,23.34
2017-09-04T13:04:00.518Z,23.72
2017-09-04T13:06:26.288Z,23.57
2017-09-04T13:08:52.048Z,22.99
2017-09-04T13:11:20.615Z,22.77
2017-09-04T13:16:50.174Z,22.28
2017-09-04T13:19:21.952Z,22.72
2017-09-04T13:21:54.487Z,23.04
2017-09-04T13:24:26.393Z,22.45
2017-09-04T13:26:58.283Z,22.67
2017-09-04T13:29:30.349Z,22.24
2017-09-04T13:31:56.167Z,21.55
2017-09-04T13:34:28.004Z,21.78
2017-09-04T13:36:59.879Z,21.31
2017-09-04T13:39:31.876Z,21.92
2017-09-04T13:42:00.648Z,21.83
2017-09-04T13:44:30.279Z,21.46
2017-09-04T13:50:00.622Z,21.90
2017-09-04T13:52:32.697Z,21.95
2017-09-04T13:58:15.479Z,21.33
2017-09-04T14:00:42.176Z,21.94
2017-09-04T14:03:14.251Z,21.87
2017-09-04T14:05:43.923Z,21.98
2017-09-04T14:08:16.000Z,21.72
2017-09-04T14:10:47.792Z,22.02
2017-09-04T14:13:18.449Z,21.77
2017-09-04T14:18:41.951Z,21.34
2017-09-04T14:21:07.857Z,21.07
2017-09-04T14:23:33.887Z,20.31
2017-09-04T14:25:59.715Z,21.12
2017-09-04T14:28:25.514Z,21.10
2017-09-04T14:30:51.273Z,20.80
2017-09-04T14:33:17.079Z,20.86
2017-09-04T14:35:43.027Z,21.24
2017-09-04T14:38:08.875Z,21.14
2017-09-04T14:40:34.678Z,21.20
2017-09-04T14:43:01.367Z,21.35
2017-09-04T14:45:29.135Z,21.38
2017-09-04T14:47:55.800Z,21.18
2017-09-04T14:50:21.616Z,21.33
2017-09-04T14:52:47.433Z,21.37
2017-09-04T14:55:13.252Z,21.47
2017-09-04T14:57:39.103Z,21.40
2017-09-04T15:00:04.900Z,21.33
2017-09-04T15:02:30.700Z,21.15
2017-09-04T15:04:56.468Z,21.14
2017-09-04T15:07:22.321Z,21.00
2017-09-04T15:09:48.169Z,21.04
2017-09-04T15:12:13.928Z,20.55
2017-09-04T15:14:39.695Z,20.79
2017-09-04T15:17:05.496Z,20.68
2017-09-04T15:19:31.317Z,20.47
2017-09-04T15:21:57.403Z,20.58
2017-09-04T15:24:23.260Z,20.47
2017-09-04T15:26:49.025Z,20.60
2017-09-04T15:29:14.823Z,20.65
2017-09-04T15:31:40.635Z,20.60
2017-09-04T15:34:06.399Z,20.46
2017-09-04T15:36:32.227Z,20.34
2017-09-04T15:38:58.019Z,20.40
2017-09-04T15:41:24.679Z,20.33
2017-09-04T15:43:50.503Z,20.37
2017-09-04T15:46:16.271Z,20.39
2017-09-04T15:48:42.054Z,20.55
2017-09-04T15:51:07.864Z,20.33
2017-09-04T15:53:33.651Z,20.36
2017-09-04T15:55:59.439Z,20.19
2017-09-04T15:58:25.291Z,20.46
2017-09-04T16:00:51.063Z,20.47
2017-09-04T16:03:16.872Z,20.07
2017-09-04T16:05:43.571Z,20.00
2017-09-04T16:08:10.275Z,20.09
2017-09-04T16:10:36.068Z,19.95
2017-09-04T16:13:05.894Z,19.94
2017-09-04T16:15:37.931Z,19.79
2017-09-04T16:18:03.717Z,19.82
2017-09-04T16:20:30.475Z,19.64
2017-09-04T16:22:57.128Z,19.83
2017-09-04T16:28:19.675Z,19.79
2017-09-04T16:30:51.500Z,19.51
2017-09-04T16:33:18.325Z,19.45
2017-09-04T16:35:45.767Z,19.39
2017-09-04T16:38:12.459Z,19.11
2017-09-04T16:40:39.153Z,19.02
2017-09-04T16:46:09.412Z,18.68
2017-09-04T16:48:38.063Z,18.59
2017-09-04T16:54:04.463Z,18.61
2017-09-04T16:56:31.153Z,18.69
2017-09-04T16:58:56.935Z,18.15
2017-09-04T17:01:22.792Z,18.53
2017-09-04T17:03:48.567Z,18.59
2017-09-04T17:06:14.363Z,18.34
2017-09-04T17:08:40.163Z,18.44
2017-09-04T17:11:06.903Z,18.35
2017-09-04T17:13:32.710Z,18.19
2017-09-04T17:16:01.475Z,18.23
2017-09-04T17:18:30.187Z,18.26
2017-09-04T17:20:55.964Z,18.28
2017-09-04T17:23:21.731Z,18.21
2017-09-04T17:25:47.523Z,18.06
2017-09-04T17:28:13.407Z,17.92
2017-09-04T17:30:39.197Z,17.92
2017-09-04T17:33:05.017Z,17.95
2017-09-04T17:35:31.686Z,17.68
2017-09-04T17:37:57.511Z,17.55
2017-09-04T17:40:23.294Z,17.39
2017-09-04T17:42:49.107Z,17.51
2017-09-04T17:45:14.991Z,17.33
2017-09-04T17:47:40.815Z,17.27
2017-09-04T17:50:06.605Z,17.35
2017-09-04T17:52:32.460Z,17.28
2017-09-04T17:54:58.268Z,17.28
2017-09-04T17:57:24.041Z,17.10
2017-09-04T17:59:49.812Z,17.10
2017-09-04T18:02:15.700Z,17.30
2017-09-04T18:04:41.492Z,17.02
2017-09-04T18:07:07.273Z,17.12
2017-09-04T18:09:33.192Z,17.04
2017-09-04T18:11:58.965Z,17.11
2017-09-04T18:14:24.754Z,16.84
2017-09-04T18:16:50.643Z,17.12
2017-09-04T18:19:16.422Z,16.88
2017-09-04T18:21:42.189Z,16.92
2017-09-04T18:24:08.016Z,16.89
2017-09-04T18:26:33.766Z,16.88
2017-09-04T18:28:59.583Z,16.96
2017-09-04T18:31:25.359Z,16.89
2017-09-04T18:33:51.215Z,16.81
2017-09-04T18:36:17.000Z,16.75
2017-09-04T18:38:42.799Z,16.81
2017-09-04T18:41:08.731Z,16.73
2017-09-04T18:43:34.504Z,16.74
2017-09-04T18:46:00.275Z,16.78
2017-09-04T18:48:26.084Z,16.80
2017-09-04T18:50:51.875Z,16.69
2017-09-04T18:53:17.679Z,16.63
2017-09-04T18:55:43.500Z,16.63
2017-09-04T18:58:09.323Z,16.65
2017-09-04T19:00:35.136Z,16.51
2017-09-04T19:03:00.891Z,16.52
2017-09-04T19:05:26.710Z,16.51
2017-09-04T19:07:52.452Z,16.25
2017-09-04T19:10:18.239Z,16.28
2017-09-04T19:12:43.994Z,16.33
2017-09-04T19:15:09.819Z,16.22
2017-09-04T19:17:35.695Z,16.41
2017-09-04T19:20:01.480Z,16.32
2017-09-04T19:22:27.267Z,16.33
2017-09-04T19:24:53.059Z,16.33
2017-09-04T19:27:18.843Z,16.35
2017-09-04T19:29:44.637Z,16.32
2017-09-04T19:32:10.400Z,16.23
2017-09-04T19:34:36.195Z,16.24
2017-09-04T19:37:02.024Z,16.36
2017-09-04T19:39:27.802Z,16.41
2017-09-04T19:41:53.591Z,16.25
2017-09-04T19:44:19.336Z,16.14
2017-09-04T19:46:45.179Z,16.03
2017-09-04T19:49:11.034Z,16.04
2017-09-04T19:51:36.815Z,16.26
2017-09-04T19:54:02.722Z,16.18
2017-09-04T19:56:28.496Z,16.25
2017-09-04T19:58:54.294Z,16.31
2017-09-04T20:01:20.047Z,16.38
2017-09-04T20:03:45.856Z,16.30
2017-09-04T20:06:11.664Z,16.25
2017-09-04T20:08:37.450Z,16.34
2017-09-04T20:11:03.286Z,16.38
2017-09-04T20:13:29.060Z,16.31
2017-09-04T20:15:54.874Z,16.25
2017-09-04T20:18:20.638Z,16.21
2017-09-04T20:20:46.409Z,16.23
2017-09-04T20:23:12.217Z,16.23
2017-09-04T20:25:37.993Z,16.18
2017-09-04T20:28:03.807Z,16.18
2017-09-04T20:30:29.567Z,16.24
2017-09-04T20:32:55.389Z,16.26
2017-09-04T20:35:21.168Z,16.23
2017-09-04T20:37:46.936Z,16.14
2017-09-04T20:40:12.740Z,15.77
2017-09-04T20:42:38.490Z,15.92
2017-09-04T20:45:04.272Z,16.07
2017-09-04T20:47:30.061Z,16.14
2017-09-04T20:49:55.871Z,16.12
2017-09-04T20:52:21.631Z,15.93
2017-09-04T20:54:47.480Z,15.82
2017-09-04T20:57:13.273Z,16.07
2017-09-04T20:59:39.047Z,16.06
2017-09-04T21:02:04.858Z,15.93
2017-09-04T21:04:30.635Z,16.04
2017-09-04T21:06:56.388Z,16.08
2017-09-04T21:09:22.951Z,16.06
2017-09-04T21:11:48.726Z,16.03
2017-09-04T21:14:14.495Z,16.12
2017-09-04T21:16:40.292Z,16.05
2017-09-04T21:19:06.156Z,16.07
2017-09-04T21:21:31.934Z,16.04
2017-09-04T21:23:57.831Z,16.00
2017-09-04T21:26:23.598Z,16.04
2017-09-04T21:28:49.427Z,15.95
2017-09-04T21:31:15.192Z,15.90
2017-09-04T21:33:40.981Z,16.00
2017-09-04T21:36:06.788Z,16.06
2017-09-04T21:38:32.551Z,16.24
2017-09-04T21:40:58.355Z,15.58
2017-09-04T21:43:24.139Z,15.74
2017-09-04T21:45:49.901Z,15.79
2017-09-04T21:48:15.767Z,15.93
2017-09-04T21:50:41.528Z,15.98
2017-09-04T21:53:07.287Z,16.01
2017-09-04T21:55:33.140Z,16.00
2017-09-04T21:57:58.902Z,16.07
2017-09-04T22:00:24.688Z,16.00
2017-09-04T22:02:50.499Z,16.00
2017-09-04T22:05:16.273Z,16.04
2017-09-04T22:07:42.012Z,15.97
2017-09-04T22:10:07.791Z,15.93
2017-09-04T22:12:33.540Z,15.90
2017-09-04T22:14:59.346Z,15.85
2017-09-04T22:17:25.102Z,15.92
2017-09-04T22:19:51.726Z,15.86
2017-09-04T22:22:17.477Z,15.88
2017-09-04T22:24:43.270Z,15.88
2017-09-04T22:27:09.067Z,15.87
2017-09-04T22:29:34.844Z,15.82
2017-09-04T22:32:00.714Z,15.86
2017-09-04T22:34:26.564Z,15.73
2017-09-04T22:36:52.459Z,15.78
2017-09-04T22:39:18.253Z,15.86
2017-09-04T22:41:44.005Z,15.80
2017-09-04T22:44:09.807Z,15.76
2017-09-04T22:46:35.613Z,15.65
2017-09-04T22:49:01.375Z,15.72
2017-09-04T22:51:27.856Z,15.69
2017-09-04T22:53:53.681Z,15.75
2017-09-04T22:56:19.447Z,15.68
2017-09-04T22:58:47.114Z,15.67
2017-09-04T23:01:12.915Z,15.64
2017-09-04T23:03:38.795Z,15.59
2017-09-04T23:06:04.563Z,15.59
2017-09-04T23:08:30.357Z,15.56
2017-09-04T23:10:56.145Z,15.53
2017-09-04T23:13:21.954Z,15.44
2017-09-04T23:15:47.730Z,15.38
2017-09-04T23:18:13.492Z,15.34
2017-09-04T23:20:39.390Z,15.29
2017-09-04T23:23:05.162Z,15.18
2017-09-04T23:25:30.981Z,15.08
2017-09-04T23:27:56.771Z,14.89
2017-09-04T23:30:22.584Z,14.81
2017-09-04T23:32:48.368Z,14.69
2017-09-04T23:35:14.140Z,14.63
2017-09-04T23:37:39.923Z,14.61
2017-09-04T23:40:05.691Z,14.52
2017-09-04T23:42:31.513Z,14.55
2017-09-04T23:44:57.259Z,14.54
2017-09-04T23:47:23.072Z,14.50
2017-09-04T23:49:48.827Z,14.50
2017-09-04T23:52:14.607Z,14.49
2017-09-04T23:54:40.390Z,14.48
2017-09-04T23:57:06.175Z,14.43
2017-09-04T23:59:31.940Z,14.42
